Time;durP1;ratioP1;P1;durP2;ratioP2;P2;SDS_P1;SDS_P2;PMS_P1;PMS_P2;Temp;Humidity;BMP_temperature;BMP_pressure;BME280_temperature;BME280_humidity;BME280_pressure;Samples;Min_cycle;Max_cycle;Signal;HPM_P1;HPM_P2
2023/07/04 00:01:53;;;;;;;66.85;37.22;;;27.90;99.90;;;;;;5015933;28;20109;-71
2023/07/04 00:04:21;;;;;;;59.28;38.63;;;28.00;99.90;;;;;;5015788;28;20052;-70
2023/07/04 00:06:48;;;;;;;63.08;37.80;;;28.10;99.90;;;;;;5015791;28;20022;-71
2023/07/04 00:09:15;;;;;;;69.82;38.45;;;28.10;99.90;;;;;;5015762;28;20018;-71
2023/07/04 00:11:42;;;;;;;70.45;43.40;;;28.10;99.90;;;;;;5015457;28;20053;-70
2023/07/04 00:14:09;;;;;;;92.80;51.78;;;28.20;99.90;;;;;;5015739;28;20570;-71
2023/07/04 00:16:36;;;;;;;82.00;48.17;;;28.20;99.90;;;;;;5015810;28;20387;-70
2023/07/04 00:19:06;;;;;;;69.95;44.40;;;28.20;99.90;;;;;;5015657;28;20018;-69
2023/07/04 00:21:33;;;;;;;71.53;40.72;;;28.30;99.90;;;;;;5015598;28;20029;-71
2023/07/04 00:24:00;;;;;;;79.13;69.15;;;28.20;99.90;;;;;;5015512;28;20026;-71
2023/07/04 00:26:29;;;;;;;107.97;96.90;;;28.30;99.90;;;;;;5015689;28;20406;-69
2023/07/04 00:28:57;;;;;;;154.60;139.18;;;28.20;99.90;;;;;;5014101;28;20026;-71
2023/07/04 00:31:25;;;;;;;163.82;132.98;;;28.30;99.90;;;;;;5015368;28;20555;-71
2023/07/04 00:33:52;;;;;;;63.70;36.38;;;28.40;99.90;;;;;;5015118;28;20129;-71
2023/07/04 00:36:19;;;;;;;58.40;36.92;;;28.40;99.90;;;;;;5015410;28;20438;-71
2023/07/04 00:38:49;;;;;;;62.75;38.25;;;28.40;99.90;;;;;;5015253;28;20022;-71
2023/07/04 00:41:20;;;;;;;60.05;38.75;;;28.40;99.90;;;;;;5014997;28;20496;-70
2023/07/04 00:43:58;;;;;;;60.97;36.95;;;28.40;99.90;;;;;;5015177;28;20052;-70
2023/07/04 00:46:43;;;;;;;72.22;39.47;;;28.40;99.90;;;;;;5015039;28;20110;-69
2023/07/04 00:49:18;;;;;;;62.88;38.45;;;28.40;99.90;;;;;;5014964;28;20026;-71
2023/07/04 00:51:52;;;;;;;69.13;36.50;;;28.40;99.90;;;;;;5014817;28;20026;-71
2023/07/04 00:54:23;;;;;;;1417.15;783.03;;;28.50;99.90;;;;;;5014822;28;20039;-71
2023/07/04 00:56:55;;;;;;;711.45;422.60;;;28.70;99.90;;;;;;5015313;28;20422;-71
2023/07/04 00:59:23;;;;;;;129.85;72.22;;;28.70;99.90;;;;;;5014770;28;20022;-72
2023/07/04 01:01:54;;;;;;;114.63;64.53;;;28.70;99.90;;;;;;5014830;28;20050;-73
2023/07/04 01:04:20;;;;;;;701.03;428.35;;;28.60;99.90;;;;;;5014078;28;20101;-69
2023/07/04 02:16:09;;;;;;;64.53;41.97;;;29.20;99.90;;;;;;5087978;28;20438;-70
2023/07/04 02:18:36;;;;;;;83.90;46.47;;;29.10;99.90;;;;;;5069119;28;20037;-67
2023/07/04 02:21:06;;;;;;;98.47;37.28;;;29.20;99.90;;;;;;5069821;28;20020;-66
2023/07/04 02:23:32;;;;;;;82.55;41.67;;;29.30;99.90;;;;;;5069640;28;20082;-67
2023/07/04 02:26:01;;;;;;;251.05;223.10;;;29.30;99.90;;;;;;5069728;28;20381;-67
2023/07/04 02:28:28;;;;;;;206.57;186.50;;;29.40;99.90;;;;;;5069610;28;20516;-68
2023/07/04 02:30:56;;;;;;;199.50;180.07;;;29.60;99.90;;;;;;5058825;28;20032;-68
2023/07/04 02:33:22;;;;;;;209.45;188.43;;;29.70;99.90;;;;;;5060278;28;20078;-68
2023/07/04 02:35:49;;;;;;;37.70;24.77;;;29.70;99.90;;;;;;5060583;28;20029;-68
2023/07/04 02:38:16;;;;;;;44.45;22.80;;;29.90;99.90;;;;;;5058817;28;20071;-69
2023/07/04 02:40:45;;;;;;;38.45;21.80;;;30.00;99.90;;;;;;5060217;28;20017;-66
2023/07/04 02:43:12;;;;;;;33.47;20.58;;;30.00;99.90;;;;;;5060376;28;20021;-69
2023/07/04 02:45:40;;;;;;;31.05;20.77;;;30.10;99.90;;;;;;5058405;28;20025;-66
2023/07/04 02:48:07;;;;;;;34.05;22.05;;;30.00;99.90;;;;;;5059204;28;20021;-65
2023/07/04 02:50:34;;;;;;;81.22;46.75;;;30.20;99.90;;;;;;5060298;28;20020;-66
2023/07/04 02:53:01;;;;;;;47.80;32.00;;;30.20;99.90;;;;;;5063292;28;20025;-66
2023/07/04 02:55:28;;;;;;;40.92;26.35;;;30.30;99.90;;;;;;5056634;28;20036;-65
2023/07/04 02:57:55;;;;;;;47.13;26.90;;;30.40;99.90;;;;;;5065290;28;20021;-66
2023/07/04 03:00:22;;;;;;;43.97;26.70;;;30.40;99.90;;;;;;5077904;28;20083;-66
2023/07/04 03:02:48;;;;;;;39.10;26.20;;;30.60;99.90;;;;;;5081797;28;20025;-65
2023/07/04 03:05:15;;;;;;;44.80;27.08;;;30.60;99.90;;;;;;5090118;28;20025;-66
2023/07/04 03:07:41;;;;;;;36.08;24.73;;;30.70;99.90;;;;;;5090048;28;20054;-65
2023/07/04 03:10:08;;;;;;;52.80;31.33;;;30.70;99.90;;;;;;5090050;28;20050;-67
2023/07/04 03:12:34;;;;;;;44.50;26.60;;;30.70;99.90;;;;;;5089619;28;20107;-66
2023/07/04 03:15:01;;;;;;;37.53;24.63;;;30.70;99.90;;;;;;5089181;28;20048;-65
2023/07/04 03:17:28;;;;;;;84.95;48.80;;;30.80;99.90;;;;;;5073716;28;20399;-67
2023/07/04 03:19:54;;;;;;;85.65;45.83;;;30.90;99.90;;;;;;5064763;28;20159;-68
2023/07/04 03:22:21;;;;;;;87.05;47.28;;;30.90;99.90;;;;;;5068085;28;20120;-68
2023/07/04 03:24:47;;;;;;;51.75;32.50;;;31.00;99.90;;;;;;5065425;28;20175;-68
2023/07/04 03:27:14;;;;;;;46.17;29.65;;;31.00;99.90;;;;;;5050796;28;20031;-69
2023/07/04 03:29:40;;;;;;;58.38;36.63;;;31.10;99.90;;;;;;5048899;28;20558;-66
2023/07/04 03:32:07;;;;;;;71.13;40.40;;;31.10;99.90;;;;;;5048704;28;20096;-67
2023/07/04 03:34:34;;;;;;;53.40;33.70;;;31.10;99.90;;;;;;5045564;28;20123;-67
2023/07/04 03:37:00;;;;;;;43.50;27.58;;;31.10;99.90;;;;;;5046291;28;20021;-66
2023/07/04 03:39:27;;;;;;;40.72;24.60;;;31.20;99.90;;;;;;5050054;28;20013;-68
2023/07/04 03:41:53;;;;;;;137.13;112.45;;;31.30;99.90;;;;;;5049876;28;20083;-67
2023/07/04 03:44:20;;;;;;;58.78;34.80;;;31.30;99.90;;;;;;5044359;28;20074;-66
2023/07/04 03:46:47;;;;;;;50.45;33.88;;;31.30;99.90;;;;;;5049656;28;20021;-68
2023/07/04 03:49:13;;;;;;;72.38;51.65;;;31.30;99.90;;;;;;5046883;28;20026;-69
2023/07/04 03:51:40;;;;;;;84.35;55.95;;;31.30;99.90;;;;;;5044221;28;21010;-67
2023/07/04 03:54:07;;;;;;;86.68;61.13;;;31.40;99.90;;;;;;5046604;28;20485;-69
2023/07/04 03:56:33;;;;;;;79.38;54.97;;;31.40;99.90;;;;;;5046536;28;20477;-68
2023/07/04 03:59:00;;;;;;;80.95;54.53;;;31.40;99.90;;;;;;5036424;28;20026;-68
2023/07/04 04:01:26;;;;;;;71.95;49.75;;;31.40;99.90;;;;;;5051147;28;20045;-66
2023/07/04 04:03:53;;;;;;;72.40;51.35;;;31.50;99.90;;;;;;5049023;28;20071;-68
2023/07/04 04:06:21;;;;;;;74.65;49.08;;;31.50;99.90;;;;;;5051306;28;20082;-68
2023/07/04 04:08:48;;;;;;;86.18;54.58;;;31.50;99.90;;;;;;5055034;28;20036;-68
2023/07/04 04:11:14;;;;;;;68.95;44.78;;;31.50;99.90;;;;;;5054718;28;20411;-68
2023/07/04 04:13:41;;;;;;;60.25;39.05;;;31.50;99.90;;;;;;5054710;28;20025;-68
2023/07/04 04:16:07;;;;;;;55.97;35.35;;;31.50;99.90;;;;;;5054838;28;20036;-68
2023/07/04 04:18:34;;;;;;;53.58;30.60;;;31.50;99.90;;;;;;5055091;28;20103;-69
2023/07/04 04:21:00;;;;;;;36.70;23.92;;;31.50;99.90;;;;;;5055023;28;20021;-69
2023/07/04 04:23:27;;;;;;;30.10;20.40;;;31.50;99.90;;;;;;5054818;28;20532;-69
2023/07/04 04:25:53;;;;;;;41.72;24.92;;;31.50;99.90;;;;;;5054928;28;20074;-69
2023/07/04 04:28:20;;;;;;;37.03;24.13;;;31.50;99.90;;;;;;5054865;28;20017;-69
2023/07/04 04:30:47;;;;;;;23.42;14.55;;;31.50;99.90;;;;;;5054998;28;20393;-68
2023/07/04 04:33:16;;;;;;;20.92;12.55;;;31.60;99.90;;;;;;5054930;28;20432;-68
2023/07/04 04:35:45;;;;;;;25.13;13.73;;;31.60;99.90;;;;;;5054749;28;20029;-69
2023/07/04 04:38:12;;;;;;;21.63;13.63;;;31.50;99.90;;;;;;5053464;28;20079;-68
2023/07/04 04:40:38;;;;;;;22.63;14.23;;;31.60;99.90;;;;;;5054647;28;20100;-68
2023/07/04 04:43:05;;;;;;;39.50;24.15;;;31.60;99.90;;;;;;5054646;28;20067;-68
2023/07/04 04:45:32;;;;;;;31.08;16.42;;;31.70;99.90;;;;;;5054318;28;20082;-68
2023/07/04 04:48:01;;;;;;;413.55;371.92;;;31.80;99.90;;;;;;5054639;28;20032;-69
2023/07/04 04:50:30;;;;;;;79.65;72.43;;;31.90;99.90;;;;;;5054299;28;20438;-68
2023/07/04 04:52:59;;;;;;;21.88;16.13;;;32.00;99.90;;;;;;5054287;28;20363;-69
2023/07/04 04:55:27;;;;;;;21.10;14.52;;;32.00;99.90;;;;;;5054227;28;20025;-69
2023/07/04 04:57:53;;;;;;;27.00;15.48;;;32.00;99.90;;;;;;5054269;28;20113;-69
2023/07/04 05:00:20;;;;;;;29.00;14.98;;;32.00;99.90;;;;;;5054096;28;20049;-68
2023/07/04 05:02:47;;;;;;;18.80;15.02;;;32.00;99.90;;;;;;5054468;28;20104;-69
2023/07/04 05:05:15;;;;;;;17.35;12.25;;;32.00;99.90;;;;;;5054253;28;20060;-69
2023/07/04 05:07:42;;;;;;;16.63;11.32;;;32.00;99.90;;;;;;5053986;28;20048;-69
2023/07/04 05:10:09;;;;;;;18.67;12.80;;;32.00;99.90;;;;;;5054016;28;20131;-69
2023/07/04 05:12:36;;;;;;;20.58;12.75;;;32.00;99.90;;;;;;5053919;28;20059;-69
2023/07/04 05:15:03;;;;;;;22.90;13.52;;;32.00;99.90;;;;;;5053683;28;20089;-68
2023/07/04 05:17:30;;;;;;;20.42;12.40;;;32.00;99.90;;;;;;5054155;28;20381;-68
2023/07/04 05:19:58;;;;;;;24.80;15.63;;;32.00;99.90;;;;;;5053898;28;20017;-69
2023/07/04 05:22:25;;;;;;;27.00;17.52;;;32.00;99.90;;;;;;5053696;28;20070;-69
2023/07/04 05:24:51;;;;;;;27.92;18.15;;;32.00;99.90;;;;;;5053768;28;20037;-70
2023/07/04 05:27:18;;;;;;;33.15;23.25;;;32.10;99.90;;;;;;5053791;28;20017;-69
2023/07/04 05:29:48;;;;;;;24.33;17.17;;;32.10;99.90;;;;;;5053521;28;20033;-69
2023/07/04 05:32:14;;;;;;;20.05;13.68;;;32.20;99.90;;;;;;5053623;28;20473;-68
2023/07/04 05:34:41;;;;;;;17.27;12.65;;;32.30;99.90;;;;;;5053536;28;20037;-68
2023/07/04 05:37:07;;;;;;;22.85;14.52;;;32.30;99.90;;;;;;5053485;28;20031;-68
2023/07/04 05:39:34;;;;;;;32.83;18.05;;;32.30;99.90;;;;;;5053514;28;20040;-68
2023/07/04 05:42:01;;;;;;;28.90;17.55;;;32.30;99.90;;;;;;5053637;28;20504;-69
2023/07/04 05:44:27;;;;;;;27.05;18.02;;;32.30;99.90;;;;;;5053304;28;20033;-69
2023/07/04 05:46:55;;;;;;;28.30;17.40;;;32.20;99.90;;;;;;5053520;28;20024;-69
2023/07/04 05:49:21;;;;;;;29.38;16.48;;;32.20;99.90;;;;;;5053209;28;20021;-69
2023/07/04 05:51:48;;;;;;;25.88;17.52;;;32.20;99.90;;;;;;5053417;28;20111;-68
2023/07/04 05:54:14;;;;;;;27.17;18.50;;;32.20;99.90;;;;;;5053457;28;20473;-69
2023/07/04 05:56:41;;;;;;;16.40;12.90;;;32.30;99.90;;;;;;5053330;28;20021;-69
2023/07/04 05:59:09;;;;;;;19.00;12.30;;;32.20;99.90;;;;;;5053153;28;20074;-68
2023/07/04 06:01:45;;;;;;;22.70;13.15;;;32.20;99.90;;;;;;5053289;28;20052;-69
2023/07/04 06:04:13;;;;;;;17.85;11.10;;;32.20;99.90;;;;;;5053270;28;20083;-68
2023/07/04 06:06:42;;;;;;;17.15;9.30;;;32.20;99.90;;;;;;5053075;28;20114;-68
2023/07/04 06:09:13;;;;;;;13.85;9.27;;;32.30;99.90;;;;;;5053230;28;20024;-68
2023/07/04 06:11:45;;;;;;;13.88;9.45;;;32.30;99.90;;;;;;5051764;28;20384;-69
2023/07/04 06:14:21;;;;;;;15.23;9.90;;;32.30;99.90;;;;;;5052891;28;20132;-68
2023/07/04 06:16:47;;;;;;;15.32;9.73;;;32.30;99.90;;;;;;5053152;28;20101;-68
2023/07/04 06:19:14;;;;;;;19.77;11.07;;;32.30;99.90;;;;;;5052939;28;20021;-68
2023/07/04 06:21:40;;;;;;;15.18;10.38;;;32.30;99.90;;;;;;5053029;28;20474;-68
2023/07/04 06:24:07;;;;;;;16.92;9.73;;;32.30;99.90;;;;;;5053306;28;20432;-68
2023/07/04 06:26:34;;;;;;;14.20;9.88;;;32.30;99.90;;;;;;5052874;28;20017;-70
2023/07/04 06:29:01;;;;;;;17.88;11.25;;;32.40;99.90;;;;;;5052884;28;20052;-69
2023/07/04 06:31:28;;;;;;;22.38;12.38;;;32.40;99.90;;;;;;5052931;28;20078;-67
2023/07/04 06:33:55;;;;;;;20.75;11.70;;;32.40;99.90;;;;;;5052625;28;20029;-67
2023/07/04 06:36:22;;;;;;;18.90;11.48;;;32.40;99.90;;;;;;5053449;28;20415;-67
2023/07/04 06:38:49;;;;;;;15.70;10.07;;;32.40;99.90;;;;;;5052936;28;20021;-68
2023/07/04 06:41:16;;;;;;;16.33;10.77;;;32.40;99.90;;;;;;5052558;28;20053;-67
2023/07/04 06:43:47;;;;;;;16.65;9.23;;;32.30;99.90;;;;;;5034253;28;20041;-68
2023/07/04 06:46:19;;;;;;;13.50;9.75;;;32.40;99.90;;;;;;5032918;28;20031;-67
2023/07/04 06:48:48;;;;;;;15.82;11.75;;;32.40;99.90;;;;;;5032876;28;20541;-67
2023/07/04 06:51:16;;;;;;;18.70;12.38;;;32.40;99.90;;;;;;5032916;28;20029;-68
2023/07/04 06:53:44;;;;;;;52.50;47.30;;;32.40;99.90;;;;;;5032829;28;20103;-68
2023/07/04 06:56:13;;;;;;;122.20;111.07;;;32.40;99.90;;;;;;5032867;28;20602;-68
2023/07/04 06:58:42;;;;;;;204.23;182.70;;;32.40;99.90;;;;;;5032758;28;20036;-68
2023/07/04 07:01:10;;;;;;;20.20;10.55;;;32.40;99.90;;;;;;5033631;28;20029;-67
2023/07/04 07:03:37;;;;;;;17.98;9.93;;;32.50;99.90;;;;;;5036772;28;20585;-68
2023/07/04 07:06:05;;;;;;;25.05;10.93;;;32.50;99.90;;;;;;5036655;28;20030;-68
2023/07/04 07:08:33;;;;;;;17.00;12.35;;;32.50;99.90;;;;;;5036518;28;20084;-68
2023/07/04 07:11:02;;;;;;;19.45;11.55;;;32.40;99.90;;;;;;5036569;28;20029;-68
2023/07/04 07:13:29;;;;;;;17.70;10.85;;;32.40;99.90;;;;;;5036475;28;20025;-69
2023/07/04 07:16:07;;;;;;;21.70;12.20;;;32.50;99.90;;;;;;5036094;28;20124;-68
2023/07/04 07:18:35;;;;;;;17.40;10.30;;;32.50;99.90;;;;;;5036546;28;20025;-68
2023/07/04 07:21:03;;;;;;;17.35;10.15;;;32.50;99.90;;;;;;5036614;28;20087;-68
2023/07/04 07:23:32;;;;;;;14.07;9.50;;;32.60;99.90;;;;;;5036328;28;20394;-67
2023/07/04 07:26:00;;;;;;;16.83;10.18;;;32.50;99.90;;;;;;5036587;28;20026;-68
2023/07/04 07:28:32;;;;;;;13.73;9.32;;;32.40;99.90;;;;;;5036146;28;20541;-67
2023/07/04 07:31:02;;;;;;;;;;;32.40;99.90;;;;;;5035588;28;20194;-68
2023/07/04 07:33:31;;;;;;;13.27;8.73;;;32.50;99.90;;;;;;5036043;28;19905;-68
2023/07/04 07:35:59;;;;;;;13.40;8.25;;;32.60;99.90;;;;;;5035799;28;20431;-68
2023/07/04 07:38:26;;;;;;;13.73;8.60;;;32.70;99.90;;;;;;5036049;28;20104;-68
2023/07/04 07:40:54;;;;;;;22.42;13.70;;;32.80;99.90;;;;;;5036380;28;20033;-68
2023/07/04 07:43:20;;;;;;;26.17;15.68;;;33.00;99.90;;;;;;5035936;28;20026;-67
2023/07/04 07:45:47;;;;;;;29.27;18.77;;;33.10;99.90;;;;;;5036480;28;20104;-68
2023/07/04 07:48:16;;;;;;;26.40;17.02;;;33.20;99.90;;;;;;5035050;28;20390;-69
2023/07/04 07:50:44;;;;;;;23.90;15.07;;;33.10;99.90;;;;;;5035703;28;20482;-68
2023/07/04 07:53:12;;;;;;;18.85;13.48;;;33.00;99.90;;;;;;5035694;28;20038;-67
2023/07/04 07:55:39;;;;;;;25.13;14.85;;;33.00;99.90;;;;;;5035931;28;20033;-67
2023/07/04 07:58:06;;;;;;;22.70;13.00;;;33.00;99.90;;;;;;5036081;28;20017;-68
2023/07/04 08:00:32;;;;;;;27.60;12.73;;;33.10;99.90;;;;;;5069902;28;20389;-69
2023/07/04 08:02:59;;;;;;;18.38;11.85;;;33.20;99.90;;;;;;5075495;28;20035;-68
2023/07/04 08:05:25;;;;;;;20.52;11.82;;;33.30;99.90;;;;;;5075305;28;20480;-69
2023/07/04 08:07:52;;;;;;;16.65;12.35;;;33.30;99.90;;;;;;5075446;28;20024;-68
2023/07/04 08:10:19;;;;;;;16.17;11.95;;;33.20;99.90;;;;;;5075287;28;20040;-68
2023/07/04 08:12:46;;;;;;;19.25;11.23;;;33.20;99.90;;;;;;5074991;28;20029;-68
2023/07/04 08:15:12;;;;;;;17.17;11.23;;;33.30;99.90;;;;;;5075020;28;20041;-69
2023/07/04 08:17:39;;;;;;;20.70;12.00;;;33.40;99.90;;;;;;5075364;28;20029;-69
2023/07/04 08:20:06;;;;;;;16.58;9.30;;;33.50;99.90;;;;;;5075016;28;20480;-68
2023/07/04 08:22:33;;;;;;;17.45;9.82;;;33.60;99.90;;;;;;5075428;28;20028;-68
2023/07/04 08:25:00;;;;;;;16.65;9.15;;;33.70;99.90;;;;;;5075052;28;20027;-68
2023/07/04 08:27:27;;;;;;;12.93;8.95;;;33.80;99.90;;;;;;5074772;28;20039;-68
2023/07/04 08:29:54;;;;;;;17.05;9.43;;;33.80;99.90;;;;;;5074925;28;20085;-68
2023/07/04 08:32:20;;;;;;;13.40;8.98;;;33.80;99.90;;;;;;5075069;28;20028;-68
2023/07/04 08:34:48;;;;;;;15.02;10.00;;;33.70;99.90;;;;;;5074527;28;20028;-66
2023/07/04 08:37:15;;;;;;;16.10;10.30;;;33.70;99.90;;;;;;5074779;28;20061;-68
2023/07/04 08:39:46;;;;;;;22.75;11.82;;;33.70;99.90;;;;;;5073992;28;20048;-67
2023/07/04 08:42:15;;;;;;;17.85;11.68;;;33.60;99.90;;;;;;5073724;28;20093;-68
2023/07/04 08:44:47;;;;;;;22.83;14.13;;;33.50;99.90;;;;;;5074291;28;20025;-68
2023/07/04 08:47:18;;;;;;;22.77;14.10;;;33.50;99.90;;;;;;5074330;28;20465;-67
2023/07/04 08:49:53;;;;;;;19.60;12.95;;;33.50;99.90;;;;;;5074106;28;20028;-68
2023/07/04 08:52:21;;;;;;;28.33;12.85;;;33.40;99.90;;;;;;5074388;28;20041;-68
2023/07/04 08:54:48;;;;;;;17.10;12.57;;;33.30;99.90;;;;;;5074013;28;20028;-67
2023/07/04 08:57:39;;;;;;;262.98;227.88;;;33.30;99.90;;;;;;5074239;28;20110;-67
2023/07/04 09:00:12;;;;;;;43.70;36.95;;;33.20;99.90;;;;;;5074027;28;20090;-67
2023/07/04 09:02:58;;;;;;;26.52;18.20;;;33.10;99.90;;;;;;5074204;28;20021;-68
2023/07/04 09:05:26;;;;;;;26.23;15.88;;;33.10;99.90;;;;;;5073931;28;20031;-68
2023/07/04 09:07:56;;;;;;;24.70;14.68;;;33.10;99.90;;;;;;5074302;28;20039;-68
2023/07/04 09:10:36;;;;;;;37.53;21.52;;;33.10;99.90;;;;;;5073985;28;20393;-68
2023/07/04 09:13:06;;;;;;;27.20;15.63;;;33.10;99.90;;;;;;5074013;28;20029;-68
2023/07/04 09:15:39;;;;;;;22.65;11.60;;;33.10;99.90;;;;;;5073753;28;20067;-68
2023/07/04 09:18:25;;;;;;;28.77;12.90;;;33.10;99.90;;;;;;5073911;28;20095;-68
2023/07/04 09:21:16;;;;;;;16.00;9.02;;;33.00;99.90;;;;;;5073820;28;20031;-69
2023/07/04 09:23:44;;;;;;;19.33;8.55;;;32.80;99.90;;;;;;5073318;28;20028;-68
2023/07/04 09:26:17;;;;;;;19.70;11.13;;;32.70;99.90;;;;;;5073685;28;20120;-68
2023/07/04 09:28:46;;;;;;;18.35;10.80;;;32.60;99.90;;;;;;5033632;28;20478;-68
2023/07/04 09:31:32;;;;;;;19.85;11.70;;;32.60;99.90;;;;;;5033779;28;20028;-69
2023/07/04 09:34:07;;;;;;;15.88;10.23;;;32.40;99.90;;;;;;5033498;28;20030;-68
2023/07/04 09:36:37;;;;;;;24.00;10.98;;;32.40;99.90;;;;;;5033716;28;20478;-68
2023/07/04 09:39:06;;;;;;;64.30;36.25;;;32.40;99.90;;;;;;5033582;28;20079;-68
2023/07/04 09:41:36;;;;;;;45.13;25.45;;;32.30;99.90;;;;;;5033669;28;20087;-68
2023/07/04 09:44:33;;;;;;;27.25;16.35;;;32.40;99.90;;;;;;5033655;28;20471;-68
2023/07/04 09:47:01;;;;;;;27.67;14.40;;;32.30;99.90;;;;;;5033716;28;20485;-68
2023/07/04 09:49:31;;;;;;;36.30;16.23;;;32.20;99.90;;;;;;5033489;28;20557;-68
2023/07/04 09:52:01;;;;;;;85.85;44.17;;;32.20;99.90;;;;;;5033597;28;20485;-68
2023/07/04 09:54:30;;;;;;;49.00;27.13;;;32.20;99.90;;;;;;5033369;28;20394;-68
2023/07/04 09:56:57;;;;;;;24.13;14.73;;;32.10;99.90;;;;;;5033440;28;20025;-68
2023/07/04 09:59:28;;;;;;;39.10;18.17;;;32.10;99.90;;;;;;5033380;28;20490;-67
2023/07/04 10:02:11;;;;;;;337.13;178.57;;;32.00;99.90;;;;;;5033507;28;20155;-67
2023/07/04 10:04:40;;;;;;;328.60;175.60;;;32.00;99.90;;;;;;5033688;28;20294;-68
2023/07/04 10:07:14;;;;;;;312.60;179.40;;;32.00;99.90;;;;;;5033334;28;20466;-68
2023/07/04 10:09:53;;;;;;;368.55;235.90;;;31.90;99.90;;;;;;5033118;28;20030;-69
2023/07/04 10:12:20;;;;;;;102.93;64.20;;;31.90;99.90;;;;;;5033250;28;20022;-72
2023/07/04 10:14:50;;;;;;;52.30;30.75;;;31.90;99.90;;;;;;5032925;28;20045;-66
2023/07/04 10:17:18;;;;;;;31.20;17.85;;;31.90;99.90;;;;;;5033127;28;20108;-68
2023/07/04 10:19:48;;;;;;;32.05;18.55;;;31.90;99.90;;;;;;5033321;28;20381;-67
2023/07/04 10:22:24;;;;;;;34.05;21.25;;;31.90;99.90;;;;;;5033007;28;20129;-68
2023/07/04 10:24:51;;;;;;;24.70;15.27;;;31.90;99.90;;;;;;5033173;28;20490;-68
2023/07/04 10:27:21;;;;;;;43.45;22.73;;;31.90;99.90;;;;;;5033110;28;20537;-68
2023/07/04 10:29:54;;;;;;;32.72;18.08;;;31.90;99.90;;;;;;5032883;28;20023;-68
2023/07/04 10:32:23;;;;;;;38.40;15.48;;;31.80;99.90;;;;;;5033196;28;20026;-68
2023/07/04 10:34:50;;;;;;;27.73;14.77;;;31.80;99.90;;;;;;5032840;28;20021;-68
2023/07/04 10:37:27;;;;;;;36.47;17.55;;;31.80;99.90;;;;;;5036078;28;20032;-68
2023/07/04 10:40:00;;;;;;;37.65;19.15;;;31.70;99.90;;;;;;5037105;28;20020;-68
2023/07/04 10:42:51;;;;;;;32.63;17.85;;;31.70;99.90;;;;;;5036981;28;20039;-67
2023/07/04 10:45:21;;;;;;;36.22;18.70;;;31.70;99.90;;;;;;5036685;28;20367;-67
2023/07/04 10:47:52;;;;;;;38.45;19.77;;;31.60;99.90;;;;;;5036950;28;20112;-68
2023/07/04 10:50:22;;;;;;;33.85;17.92;;;31.60;99.90;;;;;;5036831;28;20063;-67
2023/07/04 10:52:49;;;;;;;28.40;15.50;;;31.50;99.90;;;;;;5036679;28;20032;-67
2023/07/04 10:55:22;;;;;;;35.28;17.92;;;31.40;99.90;;;;;;5036662;28;20032;-67
2023/07/04 10:57:59;;;;;;;34.00;18.17;;;31.30;99.90;;;;;;5036705;28;20438;-68
2023/07/04 11:00:34;;;;;;;49.05;25.58;;;31.20;99.90;;;;;;5036635;28;20397;-69
2023/07/04 11:03:06;;;;;;;36.50;17.95;;;31.20;99.90;;;;;;5036615;28;20017;-67
2023/07/04 11:05:49;;;;;;;32.38;16.83;;;31.10;99.90;;;;;;5036316;28;20459;-67
2023/07/04 11:08:19;;;;;;;49.45;20.90;;;31.10;99.90;;;;;;5036377;28;20025;-68
2023/07/04 11:10:58;;;;;;;56.40;30.65;;;31.00;99.90;;;;;;5036319;28;20029;-68
2023/07/04 11:13:25;;;;;;;44.92;25.60;;;31.00;99.90;;;;;;5036423;28;20025;-68
2023/07/04 11:15:58;;;;;;;51.00;30.02;;;31.00;99.90;;;;;;5036051;28;20124;-68
2023/07/04 11:18:30;;;;;;;61.75;35.55;;;31.00;99.90;;;;;;5036271;28;20028;-67
2023/07/04 11:21:16;;;;;;;69.22;35.47;;;31.00;99.90;;;;;;5036266;28;20021;-68
2023/07/04 11:23:49;;;;;;;44.03;22.52;;;31.00;99.90;;;;;;5036155;28;20025;-68
2023/07/04 11:26:18;;;;;;;38.83;19.73;;;31.00;99.90;;;;;;5036187;28;20116;-68
2023/07/04 11:28:47;;;;;;;31.58;18.15;;;31.10;99.90;;;;;;5036030;28;20084;-68
2023/07/04 11:31:19;;;;;;;35.42;18.90;;;31.00;99.90;;;;;;5036118;28;20022;-68
2023/07/04 11:33:50;;;;;;;29.42;17.45;;;31.00;99.90;;;;;;5035809;28;20493;-68
2023/07/04 11:36:24;;;;;;;26.02;15.52;;;31.00;99.90;;;;;;5035840;28;20041;-67
2023/07/04 11:38:57;;;;;;;26.38;15.20;;;31.00;99.90;;;;;;5035890;28;20072;-68
2023/07/04 11:41:34;;;;;;;34.38;15.15;;;31.00;99.90;;;;;;5035909;28;20108;-68
2023/07/04 11:44:22;;;;;;;337.77;299.00;;;31.00;99.90;;;;;;5034578;28;20432;-68
2023/07/04 11:47:07;;;;;;;49.25;26.33;;;31.00;99.90;;;;;;5035565;28;20501;-68
2023/07/04 11:49:35;;;;;;;30.75;17.15;;;30.90;99.90;;;;;;5035608;28;20018;-68
2023/07/04 11:52:25;;;;;;;37.53;24.10;;;30.90;99.90;;;;;;5035840;28;20014;-68
2023/07/04 11:55:15;;;;;;;45.05;26.98;;;30.90;99.90;;;;;;5035331;28;20478;-67
2023/07/04 11:58:02;;;;;;;24.50;14.95;;;30.90;99.90;;;;;;5035585;28;20021;-67
2023/07/04 12:00:30;;;;;;;26.42;14.35;;;30.90;99.90;;;;;;5035550;28;20513;-67
2023/07/04 12:02:58;;;;;;;26.27;15.93;;;30.90;99.90;;;;;;5035485;28;20390;-67
2023/07/04 12:05:33;;;;;;;32.83;16.15;;;30.90;99.90;;;;;;5035284;28;20049;-68
2023/07/04 12:08:29;;;;;;;30.42;17.23;;;31.00;99.90;;;;;;5035479;28;20076;-68
2023/07/04 12:11:00;;;;;;;32.22;18.58;;;31.00;99.90;;;;;;5035484;28;20060;-68
2023/07/04 12:13:30;;;;;;;78.03;45.22;;;31.00;99.90;;;;;;5035432;28;20055;-67
2023/07/04 12:15:57;;;;;;;415.10;366.05;;;31.00;99.90;;;;;;5034922;28;20102;-68
2023/07/04 12:18:26;;;;;;;32.35;17.67;;;31.00;99.90;;;;;;5035238;28;20455;-68
2023/07/04 12:20:54;;;;;;;28.75;16.95;;;31.00;99.90;;;;;;5035196;28;20029;-68
2023/07/04 12:23:21;;;;;;;32.70;16.10;;;30.90;99.90;;;;;;5034965;28;20025;-68
2023/07/04 12:25:50;;;;;;;25.40;15.50;;;30.90;99.90;;;;;;5035132;28;20021;-68
2023/07/04 12:28:22;;;;;;;80.45;56.42;;;30.90;99.90;;;;;;5034983;28;20029;-67
2023/07/04 12:30:51;;;;;;;24.10;16.02;;;30.90;99.90;;;;;;5034960;28;20482;-68
2023/07/04 12:33:22;;;;;;;183.57;164.38;;;30.80;99.90;;;;;;5034956;28;20389;-68
2023/07/04 12:35:55;;;;;;;23.42;15.40;;;30.90;99.90;;;;;;5034661;28;20026;-67
2023/07/04 12:38:24;;;;;;;29.58;16.75;;;30.90;99.90;;;;;;5034745;28;20022;-68
2023/07/04 12:40:52;;;;;;;35.03;18.75;;;30.90;99.90;;;;;;5034854;28;20425;-68
2023/07/04 12:43:20;;;;;;;30.23;16.20;;;30.80;99.90;;;;;;5034604;28;20049;-68
2023/07/04 12:45:47;;;;;;;29.17;17.73;;;30.80;99.90;;;;;;5034658;28;20029;-67
2023/07/04 12:48:15;;;;;;;33.85;17.38;;;30.80;99.90;;;;;;5034876;28;20032;-67
2023/07/04 12:50:53;;;;;;;546.63;488.13;;;30.80;99.90;;;;;;5034370;28;20018;-67
2023/07/04 12:53:20;;;;;;;34.97;17.50;;;30.70;99.90;;;;;;5034548;28;20033;-67
2023/07/04 12:55:47;;;;;;;33.85;17.70;;;30.70;99.90;;;;;;5034267;28;20078;-68
2023/07/04 12:58:15;;;;;;;27.83;14.70;;;30.70;99.90;;;;;;5033981;28;20022;-68
2023/07/04 13:00:51;;;;;;;23.60;14.50;;;30.60;99.90;;;;;;5034225;28;20021;-67
2023/07/04 13:03:18;;;;;;;24.27;14.05;;;30.60;99.90;;;;;;5034188;28;20045;-67
2023/07/04 13:05:49;;;;;;;22.30;13.90;;;30.60;99.90;;;;;;5034368;28;20022;-68
2023/07/04 13:08:20;;;;;;;22.90;13.95;;;30.50;99.90;;;;;;5034264;28;20022;-68
2023/07/04 13:10:51;;;;;;;27.83;14.18;;;30.60;99.90;;;;;;5034027;28;20044;-68
2023/07/04 13:13:27;;;;;;;27.20;15.48;;;30.60;99.90;;;;;;5052293;28;20021;-67
2023/07/04 13:16:14;;;;;;;23.67;15.77;;;30.60;99.90;;;;;;5073944;28;20110;-67
2023/07/04 13:18:43;;;;;;;30.20;17.67;;;30.60;99.90;;;;;;5074155;28;20022;-67
2023/07/04 13:21:28;;;;;;;33.90;17.83;;;30.60;99.90;;;;;;5072688;28;20469;-69
2023/07/04 13:23:55;;;;;;;32.22;17.35;;;30.50;99.90;;;;;;5039783;28;20037;-68
2023/07/04 13:26:25;;;;;;;27.35;14.82;;;30.50;99.90;;;;;;5047897;28;20025;-66
2023/07/04 13:28:56;;;;;;;23.27;14.85;;;30.50;99.90;;;;;;5049475;28;20044;-67
2023/07/04 13:31:24;;;;;;;25.45;14.88;;;30.50;99.90;;;;;;5042682;28;20470;-70
2023/07/04 13:33:56;;;;;;;25.20;14.93;;;30.40;99.90;;;;;;5045538;28;20021;-70
2023/07/04 13:36:35;;;;;;;25.05;13.27;;;30.40;99.90;;;;;;5035422;28;20036;-71
2023/07/04 13:39:02;;;;;;;23.25;13.93;;;30.40;99.90;;;;;;5041941;28;20022;-70
2023/07/04 13:41:29;;;;;;;22.75;14.05;;;30.40;99.90;;;;;;5053294;28;20016;-70
2023/07/04 13:43:56;;;;;;;92.60;78.72;;;30.40;99.90;;;;;;5054617;28;20027;-71
2023/07/04 13:46:23;;;;;;;21.63;14.43;;;30.30;99.90;;;;;;5053606;28;20060;-70
2023/07/04 13:48:52;;;;;;;25.52;14.15;;;30.30;99.90;;;;;;5070703;28;20037;-71